sensor_id;sensor_type;location;lat;lon;timestamp;pressure;altitude;pressure_sealevel;temperature;humidity
9423;BME280;65863;49.506;10.400;2023-10-13T00:00:13;98107.38;;;14.74;100.00
9423;BME280;65863;49.506;10.400;2023-10-13T00:03:28;98097.66;;;14.67;100.00
9423;BME280;65863;49.506;10.400;2023-10-13T00:06:15;98094.50;;;14.80;100.00
9423;BME280;65863;49.506;10.400;2023-10-13T00:09:08;98105.63;;;14.78;100.00
9423;BME280;65863;49.506;10.400;2023-10-13T00:12:17;98085.03;;;14.68;100.00
9423;BME280;65863;49.506;10.400;2023-10-13T00:15:26;98107.88;;;14.62;100.00
9423;BME280;65863;49.506;10.400;2023-10-13T00:18:31;98106.69;;;14.66;100.00
9423;BME280;65863;49.506;10.400;2023-10-13T00:21:18;98095.91;;;14.72;100.00
9423;BME280;65863;49.506;10.400;2023-10-13T00:24:39;98105.13;;;14.72;100.00
9423;BME280;65863;49.506;10.400;2023-10-13T00:27:46;98082.84;;;14.59;100.00
9423;BME280;65863;49.506;10.400;2023-10-13T00:30:42;98105.56;;;14.86;100.00
9423;BME280;65863;49.506;10.400;2023-10-13T00:33:51;98104.25;;;14.87;100.00
9423;BME280;65863;49.506;10.400;2023-10-13T00:36:40;98083.94;;;14.81;100.00
9423;BME280;65863;49.506;10.400;2023-10-13T00:40:12;98089.16;;;14.67;100.00
9423;BME280;65863;49.506;10.400;2023-10-13T00:43:47;98076.59;;;14.60;100.00
9423;BME280;65863;49.506;10.400;2023-10-13T00:46:51;98080.59;;;14.57;100.00
9423;BME280;65863;49.506;10.400;2023-10-13T00:49:39;98070.78;;;14.58;100.00
9423;BME280;65863;49.506;10.400;2023-10-13T00:52:43;98086.53;;;14.69;100.00
9423;BME280;65863;49.506;10.400;2023-10-13T00:55:49;98063.47;;;14.38;100.00
9423;BME280;65863;49.506;10.400;2023-10-13T00:58:34;98065.22;;;14.51;100.00
9423;BME280;65863;49.506;10.400;2023-10-13T01:01:19;98084.56;;;14.54;100.00
9423;BME280;65863;49.506;10.400;2023-10-13T01:04:25;98073.97;;;14.37;100.00
9423;BME280;65863;49.506;10.400;2023-10-13T01:07:30;98089.03;;;14.40;100.00
9423;BME280;65863;49.506;10.400;2023-10-13T01:10:14;98095.47;;;14.58;100.00
9423;BME280;65863;49.506;10.400;2023-10-13T01:13:11;98047.38;;;14.23;100.00
9423;BME280;65863;49.506;10.400;2023-10-13T01:15:55;98087.56;;;14.56;100.00
9423;BME280;65863;49.506;10.400;2023-10-13T01:18:40;98070.19;;;14.42;100.00
9423;BME280;65863;49.506;10.400;2023-10-13T01:21:32;98070.69;;;14.49;100.00
9423;BME280;65863;49.506;10.400;2023-10-13T01:24:17;98055.81;;;14.48;100.00
9423;BME280;65863;49.506;10.400;2023-10-13T01:27:06;98084.31;;;14.42;100.00
9423;BME280;65863;49.506;10.400;2023-10-13T01:30:04;98059.72;;;14.35;100.00
9423;BME280;65863;49.506;10.400;2023-10-13T01:33:06;98068.41;;;14.29;100.00
9423;BME280;65863;49.506;10.400;2023-10-13T01:35:54;98080.31;;;14.45;100.00
9423;BME280;65863;49.506;10.400;2023-10-13T01:38:39;98073.66;;;14.33;100.00
9423;BME280;65863;49.506;10.400;2023-10-13T01:41:45;98071.75;;;14.36;100.00
9423;BME280;65863;49.506;10.400;2023-10-13T01:44:48;98037.72;;;14.08;100.00
9423;BME280;65863;49.506;10.400;2023-10-13T01:47:32;98066.19;;;14.45;100.00
9423;BME280;65863;49.506;10.400;2023-10-13T01:50:20;98057.72;;;14.45;100.00
9423;BME280;65863;49.506;10.400;2023-10-13T01:53:16;98080.69;;;14.67;100.00
9423;BME280;65863;49.506;10.400;2023-10-13T01:56:02;98043.69;;;14.55;100.00
9423;BME280;65863;49.506;10.400;2023-10-13T01:58:49;98064.00;;;14.79;100.00
9423;BME280;65863;49.506;10.400;2023-10-13T02:01:33;98043.06;;;14.65;100.00
9423;BME280;65863;49.506;10.400;2023-10-13T02:04:18;98053.88;;;14.76;100.00
9423;BME280;65863;49.506;10.400;2023-10-13T02:07:24;98053.44;;;14.79;100.00
9423;BME280;65863;49.506;10.400;2023-10-13T02:10:32;98050.47;;;14.77;100.00
9423;BME280;65863;49.506;10.400;2023-10-13T02:13:17;98046.63;;;14.83;100.00
9423;BME280;65863;49.506;10.400;2023-10-13T02:16:01;98055.84;;;15.01;100.00
9423;BME280;65863;49.506;10.400;2023-10-13T02:18:47;98033.16;;;15.08;100.00
9423;BME280;65863;49.506;10.400;2023-10-13T02:21:36;98026.75;;;15.08;100.00
9423;BME280;65863;49.506;10.400;2023-10-13T02:24:23;97989.94;;;14.98;100.00
9423;BME280;65863;49.506;10.400;2023-10-13T02:27:13;97996.75;;;14.95;100.00
9423;BME280;65863;49.506;10.400;2023-10-13T02:29:57;98024.25;;;15.12;100.00
9423;BME280;65863;49.506;10.400;2023-10-13T02:32:44;98021.66;;;15.06;100.00
9423;BME280;65863;49.506;10.400;2023-10-13T02:35:29;98008.06;;;14.95;100.00
9423;BME280;65863;49.506;10.400;2023-10-13T02:38:17;98007.78;;;15.01;100.00
9423;BME280;65863;49.506;10.400;2023-10-13T02:41:29;98010.22;;;15.04;100.00
9423;BME280;65863;49.506;10.400;2023-10-13T02:44:14;98028.03;;;14.97;100.00
9423;BME280;65863;49.506;10.400;2023-10-13T02:47:36;98014.03;;;14.99;100.00
9423;BME280;65863;49.506;10.400;2023-10-13T02:50:20;98026.00;;;15.07;100.00
9423;BME280;65863;49.506;10.400;2023-10-13T02:53:08;97980.50;;;14.68;100.00
9423;BME280;65863;49.506;10.400;2023-10-13T02:55:56;98020.38;;;14.72;100.00
9423;BME280;65863;49.506;10.400;2023-10-13T02:58:42;97986.41;;;14.62;100.00
9423;BME280;65863;49.506;10.400;2023-10-13T03:01:29;97995.28;;;14.76;100.00
9423;BME280;65863;49.506;10.400;2023-10-13T03:04:33;98009.91;;;14.65;100.00
9423;BME280;65863;49.506;10.400;2023-10-13T03:07:17;97988.13;;;14.58;100.00
9423;BME280;65863;49.506;10.400;2023-10-13T03:10:26;97995.84;;;14.40;100.00
9423;BME280;65863;49.506;10.400;2023-10-13T03:13:31;97993.84;;;14.33;100.00
9423;BME280;65863;49.506;10.400;2023-10-13T03:16:37;97934.25;;;13.68;100.00
9423;BME280;65863;49.506;10.400;2023-10-13T03:19:44;97997.88;;;14.04;100.00
9423;BME280;65863;49.506;10.400;2023-10-13T03:22:34;97988.84;;;13.81;100.00
9423;BME280;65863;49.506;10.400;2023-10-13T03:25:18;97993.94;;;13.57;100.00
9423;BME280;65863;49.506;10.400;2023-10-13T03:28:25;97991.28;;;13.59;100.00
9423;BME280;65863;49.506;10.400;2023-10-13T03:31:20;97992.28;;;13.54;100.00
9423;BME280;65863;49.506;10.400;2023-10-13T03:34:11;97986.22;;;13.57;100.00
9423;BME280;65863;49.506;10.400;2023-10-13T03:36:56;97995.97;;;13.64;100.00
9423;BME280;65863;49.506;10.400;2023-10-13T03:39:41;97996.66;;;13.72;100.00
9423;BME280;65863;49.506;10.400;2023-10-13T03:42:28;97999.97;;;13.78;100.00
9423;BME280;65863;49.506;10.400;2023-10-13T03:45:12;97982.38;;;13.70;100.00
9423;BME280;65863;49.506;10.400;2023-10-13T03:47:56;97975.22;;;13.69;100.00
9423;BME280;65863;49.506;10.400;2023-10-13T03:50:41;97964.34;;;13.40;100.00
9423;BME280;65863;49.506;10.400;2023-10-13T03:53:43;97990.94;;;13.55;100.00
9423;BME280;65863;49.506;10.400;2023-10-13T03:56:36;97973.03;;;13.35;100.00
9423;BME280;65863;49.506;10.400;2023-10-13T03:59:23;97995.47;;;13.50;100.00
9423;BME280;65863;49.506;10.400;2023-10-13T04:02:08;97987.75;;;13.51;100.00
9423;BME280;65863;49.506;10.400;2023-10-13T04:05:02;97988.47;;;13.59;100.00
9423;BME280;65863;49.506;10.400;2023-10-13T04:07:53;97971.06;;;13.45;100.00
9423;BME280;65863;49.506;10.400;2023-10-13T04:10:57;97987.13;;;13.35;100.00
9423;BME280;65863;49.506;10.400;2023-10-13T04:13:41;97976.59;;;13.35;100.00
9423;BME280;65863;49.506;10.400;2023-10-13T04:16:44;97977.94;;;13.59;100.00
9423;BME280;65863;49.506;10.400;2023-10-13T04:19:37;97989.09;;;13.50;100.00
9423;BME280;65863;49.506;10.400;2023-10-13T04:22:42;97975.81;;;13.42;100.00
9423;BME280;65863;49.506;10.400;2023-10-13T04:25:29;97965.56;;;13.55;100.00
9423;BME280;65863;49.506;10.400;2023-10-13T04:28:36;97955.34;;;13.85;100.00
9423;BME280;65863;49.506;10.400;2023-10-13T04:31:21;97979.78;;;14.07;100.00
9423;BME280;65863;49.506;10.400;2023-10-13T04:34:28;97961.63;;;14.01;100.00
9423;BME280;65863;49.506;10.400;2023-10-13T04:37:18;97959.44;;;14.09;99.08
9423;BME280;65863;49.506;10.400;2023-10-13T04:40:20;97938.03;;;14.06;99.03
9423;BME280;65863;49.506;10.400;2023-10-13T04:43:08;97972.19;;;14.18;99.31
9423;BME280;65863;49.506;10.400;2023-10-13T04:46:43;97899.41;;;13.73;99.08
9423;BME280;65863;49.506;10.400;2023-10-13T04:49:50;97916.03;;;13.87;98.99
9423;BME280;65863;49.506;10.400;2023-10-13T04:52:35;97933.47;;;13.93;99.35
9423;BME280;65863;49.506;10.400;2023-10-13T04:55:34;97939.31;;;13.70;100.00
9423;BME280;65863;49.506;10.400;2023-10-13T04:58:43;97944.72;;;13.75;100.00
9423;BME280;65863;49.506;10.400;2023-10-13T05:01:46;97933.13;;;13.64;100.00
9423;BME280;65863;49.506;10.400;2023-10-13T05:04:53;97901.59;;;13.32;100.00
9423;BME280;65863;49.506;10.400;2023-10-13T05:07:49;97915.09;;;13.41;100.00
9423;BME280;65863;49.506;10.400;2023-10-13T05:10:52;97955.38;;;13.59;99.60
9423;BME280;65863;49.506;10.400;2023-10-13T05:13:54;97939.66;;;13.49;99.39
9423;BME280;65863;49.506;10.400;2023-10-13T05:16:57;97907.78;;;13.05;100.00
9423;BME280;65863;49.506;10.400;2023-10-13T05:20:00;97923.03;;;13.02;100.00
9423;BME280;65863;49.506;10.400;2023-10-13T05:23:03;97933.13;;;13.13;100.00
9423;BME280;65863;49.506;10.400;2023-10-13T05:26:06;97939.69;;;13.16;98.65
9423;BME280;65863;49.506;10.400;2023-10-13T05:29:09;97927.41;;;13.21;97.87
9423;BME280;65863;49.506;10.400;2023-10-13T05:32:12;97933.38;;;13.33;97.26
9423;BME280;65863;49.506;10.400;2023-10-13T05:35:15;97931.28;;;13.33;97.30
9423;BME280;65863;49.506;10.400;2023-10-13T05:38:18;97932.97;;;13.36;96.80
9423;BME280;65863;49.506;10.400;2023-10-13T05:41:22;97946.81;;;13.50;96.58
9423;BME280;65863;49.506;10.400;2023-10-13T05:44:25;97953.34;;;13.52;96.31
9423;BME280;65863;49.506;10.400;2023-10-13T05:47:21;97927.59;;;13.23;96.67
9423;BME280;65863;49.506;10.400;2023-10-13T05:50:24;97942.72;;;13.43;96.96
9423;BME280;65863;49.506;10.400;2023-10-13T05:53:08;97930.97;;;13.54;95.98
9423;BME280;65863;49.506;10.400;2023-10-13T05:56:00;97943.69;;;13.63;95.69
9423;BME280;65863;49.506;10.400;2023-10-13T05:59:03;97806.47;;;12.32;98.74
9423;BME280;65863;49.506;10.400;2023-10-13T06:02:05;97935.63;;;13.34;98.75
9423;BME280;65863;49.506;10.400;2023-10-13T06:05:12;97922.44;;;13.12;99.56
9423;BME280;65863;49.506;10.400;2023-10-13T06:08:15;97945.09;;;13.21;98.69
9423;BME280;65863;49.506;10.400;2023-10-13T06:11:18;97953.00;;;13.15;99.50
9423;BME280;65863;49.506;10.400;2023-10-13T06:14:21;97947.13;;;13.29;98.52
9423;BME280;65863;49.506;10.400;2023-10-13T06:17:24;97948.06;;;13.23;97.80
9423;BME280;65863;49.506;10.400;2023-10-13T06:20:27;97958.34;;;13.36;99.03
9423;BME280;65863;49.506;10.400;2023-10-13T06:23:30;97938.09;;;13.30;98.47
9423;BME280;65863;49.506;10.400;2023-10-13T06:26:32;97966.94;;;13.46;99.15
9423;BME280;65863;49.506;10.400;2023-10-13T06:29:35;97960.78;;;13.32;99.59
9423;BME280;65863;49.506;10.400;2023-10-13T06:32:20;97977.81;;;13.50;99.32
9423;BME280;65863;49.506;10.400;2023-10-13T06:35:05;97935.56;;;13.42;98.54
9423;BME280;65863;49.506;10.400;2023-10-13T06:37:51;97945.31;;;13.49;98.29
9423;BME280;65863;49.506;10.400;2023-10-13T06:40:35;97958.97;;;13.77;97.00
9423;BME280;65863;49.506;10.400;2023-10-13T06:43:40;97911.16;;;13.62;95.77
9423;BME280;65863;49.506;10.400;2023-10-13T06:46:25;97944.25;;;13.87;94.70
9423;BME280;65863;49.506;10.400;2023-10-13T06:49:09;97935.44;;;14.00;95.25
9423;BME280;65863;49.506;10.400;2023-10-13T06:51:54;97935.00;;;14.29;93.62
9423;BME280;65863;49.506;10.400;2023-10-13T06:54:38;97943.94;;;14.35;90.65
9423;BME280;65863;49.506;10.400;2023-10-13T06:57:23;97925.50;;;14.34;89.93
9423;BME280;65863;49.506;10.400;2023-10-13T07:00:07;97942.84;;;14.66;89.45
9423;BME280;65863;49.506;10.400;2023-10-13T07:02:52;97943.75;;;14.86;88.01
9423;BME280;65863;49.506;10.400;2023-10-13T07:05:40;97931.69;;;14.85;88.19
9423;BME280;65863;49.506;10.400;2023-10-13T07:08:47;97921.41;;;15.07;87.96
9423;BME280;65863;49.506;10.400;2023-10-13T07:11:58;97925.53;;;15.33;86.08
9423;BME280;65863;49.506;10.400;2023-10-13T07:14:49;97917.09;;;15.43;85.24
9423;BME280;65863;49.506;10.400;2023-10-13T07:17:36;97949.22;;;15.75;84.03
9423;BME280;65863;49.506;10.400;2023-10-13T07:20:23;97939.97;;;15.75;83.26
9423;BME280;65863;49.506;10.400;2023-10-13T07:23:14;97856.06;;;15.40;82.63
9423;BME280;65863;49.506;10.400;2023-10-13T07:26:08;97953.38;;;16.31;80.60
9423;BME280;65863;49.506;10.400;2023-10-13T07:28:52;97944.28;;;16.42;79.67
9423;BME280;65863;49.506;10.400;2023-10-13T07:31:36;97925.34;;;16.25;79.22
9423;BME280;65863;49.506;10.400;2023-10-13T07:34:31;97921.00;;;16.34;79.27
9423;BME280;65863;49.506;10.400;2023-10-13T07:37:16;97953.66;;;16.55;79.42
9423;BME280;65863;49.506;10.400;2023-10-13T07:40:00;97912.06;;;16.28;79.91
9423;BME280;65863;49.506;10.400;2023-10-13T07:42:45;97899.09;;;16.15;80.02
9423;BME280;65863;49.506;10.400;2023-10-13T07:45:30;97946.03;;;16.67;79.42
9423;BME280;65863;49.506;10.400;2023-10-13T07:48:20;97939.19;;;16.70;79.24
9423;BME280;65863;49.506;10.400;2023-10-13T07:51:07;97905.00;;;16.97;78.57
9423;BME280;65863;49.506;10.400;2023-10-13T07:54:00;97921.28;;;17.38;77.50
9423;BME280;65863;49.506;10.400;2023-10-13T07:56:51;97921.56;;;17.73;74.95
9423;BME280;65863;49.506;10.400;2023-10-13T07:59:35;97898.63;;;17.91;74.30
9423;BME280;65863;49.506;10.400;2023-10-13T08:02:20;97877.13;;;18.10;75.12
9423;BME280;65863;49.506;10.400;2023-10-13T08:05:53;97910.47;;;18.64;72.27
9423;BME280;65863;49.506;10.400;2023-10-13T08:09:03;97900.72;;;18.79;69.62
9423;BME280;65863;49.506;10.400;2023-10-13T08:12:12;97895.59;;;18.99;71.71
9423;BME280;65863;49.506;10.400;2023-10-13T08:15:24;97912.22;;;19.26;67.34
9423;BME280;65863;49.506;10.400;2023-10-13T08:18:16;97907.91;;;19.25;68.47
9423;BME280;65863;49.506;10.400;2023-10-13T08:21:14;97811.75;;;18.31;69.00
9423;BME280;65863;49.506;10.400;2023-10-13T08:24:03;97886.50;;;18.79;69.17
9423;BME280;65863;49.506;10.400;2023-10-13T08:26:51;97886.19;;;18.97;70.18
9423;BME280;65863;49.506;10.400;2023-10-13T08:33:02;97898.59;;;19.72;65.50
9423;BME280;65863;49.506;10.400;2023-10-13T08:36:00;97855.53;;;19.54;64.68
9423;BME280;65863;49.506;10.400;2023-10-13T08:39:03;97860.00;;;19.81;64.12
9423;BME280;65863;49.506;10.400;2023-10-13T08:42:07;97878.84;;;20.12;63.53
9423;BME280;65863;49.506;10.400;2023-10-13T08:44:59;97876.03;;;20.38;64.17
9423;BME280;65863;49.506;10.400;2023-10-13T08:47:49;97894.25;;;20.70;61.52
9423;BME280;65863;49.506;10.400;2023-10-13T08:50:57;97877.16;;;20.70;62.63
9423;BME280;65863;49.506;10.400;2023-10-13T08:53:47;97869.19;;;20.94;61.67
9423;BME280;65863;49.506;10.400;2023-10-13T08:56:36;97886.25;;;21.20;61.65
9423;BME280;65863;49.506;10.400;2023-10-13T08:59:31;97874.31;;;21.38;58.74
9423;BME280;65863;49.506;10.400;2023-10-13T09:02:23;97870.31;;;21.29;58.05
9423;BME280;65863;49.506;10.400;2023-10-13T09:05:27;97873.00;;;21.53;59.46
9423;BME280;65863;49.506;10.400;2023-10-13T09:08:25;97875.94;;;21.69;58.79
9423;BME280;65863;49.506;10.400;2023-10-13T09:11:19;97834.06;;;21.73;56.58
9423;BME280;65863;49.506;10.400;2023-10-13T09:14:13;97860.31;;;22.27;56.75
9423;BME280;65863;49.506;10.400;2023-10-13T09:17:16;97842.47;;;22.13;57.04
9423;BME280;65863;49.506;10.400;2023-10-13T09:20:08;97867.03;;;22.48;56.95
9423;BME280;65863;49.506;10.400;2023-10-13T09:23:12;97862.19;;;22.66;54.68
9423;BME280;65863;49.506;10.400;2023-10-13T09:26:07;97825.19;;;22.70;52.92
9423;BME280;65863;49.506;10.400;2023-10-13T09:28:56;97846.66;;;23.17;52.44
9423;BME280;65863;49.506;10.400;2023-10-13T09:31:40;97851.25;;;23.57;52.29
9423;BME280;65863;49.506;10.400;2023-10-13T09:34:24;97808.03;;;23.50;51.76
9423;BME280;65863;49.506;10.400;2023-10-13T09:37:12;97821.41;;;23.80;49.83
9423;BME280;65863;49.506;10.400;2023-10-13T09:40:04;97831.44;;;23.63;47.05
9423;BME280;65863;49.506;10.400;2023-10-13T09:43:08;97828.25;;;23.38;48.46
9423;BME280;65863;49.506;10.400;2023-10-13T09:45:58;97783.13;;;23.05;48.85
9423;BME280;65863;49.506;10.400;2023-10-13T09:48:47;97820.25;;;23.19;48.81
9423;BME280;65863;49.506;10.400;2023-10-13T09:51:34;97830.03;;;23.14;49.65
9423;BME280;65863;49.506;10.400;2023-10-13T09:54:21;97816.16;;;23.08;49.22
9423;BME280;65863;49.506;10.400;2023-10-13T09:57:18;97833.28;;;23.22;48.52
9423;BME280;65863;49.506;10.400;2023-10-13T10:00:17;97825.59;;;23.27;47.88
9423;BME280;65863;49.506;10.400;2023-10-13T10:03:20;97815.69;;;23.46;48.91
9423;BME280;65863;49.506;10.400;2023-10-13T10:06:24;97812.28;;;23.83;48.87
9423;BME280;65863;49.506;10.400;2023-10-13T10:09:27;97804.38;;;24.18;47.05
9423;BME280;65863;49.506;10.400;2023-10-13T10:12:56;97826.09;;;24.23;46.76
9423;BME280;65863;49.506;10.400;2023-10-13T10:15:46;97813.63;;;24.34;45.59
9423;BME280;65863;49.506;10.400;2023-10-13T10:18:30;97818.22;;;24.60;45.67
9423;BME280;65863;49.506;10.400;2023-10-13T10:21:15;97802.56;;;24.63;44.68
9423;BME280;65863;49.506;10.400;2023-10-13T10:24:00;97797.50;;;24.61;43.51
9423;BME280;65863;49.506;10.400;2023-10-13T10:26:50;97823.75;;;24.91;44.24
9423;BME280;65863;49.506;10.400;2023-10-13T10:29:36;97799.81;;;24.85;42.43
9423;BME280;65863;49.506;10.400;2023-10-13T10:32:19;97806.75;;;24.98;43.87
9423;BME280;65863;49.506;10.400;2023-10-13T10:35:05;97786.38;;;24.89;43.18
9423;BME280;65863;49.506;10.400;2023-10-13T10:41:03;97778.06;;;25.18;41.91
9423;BME280;65863;49.506;10.400;2023-10-13T10:43:48;97771.19;;;25.27;43.34
9423;BME280;65863;49.506;10.400;2023-10-13T10:46:32;97765.91;;;25.39;43.02
9423;BME280;65863;49.506;10.400;2023-10-13T10:49:38;97787.69;;;25.67;42.52
9423;BME280;65863;49.506;10.400;2023-10-13T10:52:22;97766.22;;;25.70;43.80
9423;BME280;65863;49.506;10.400;2023-10-13T10:55:07;97771.81;;;25.66;41.53
9423;BME280;65863;49.506;10.400;2023-10-13T10:58:01;97739.97;;;25.57;41.22
9423;BME280;65863;49.506;10.400;2023-10-13T11:00:45;97724.19;;;25.58;40.84
9423;BME280;65863;49.506;10.400;2023-10-13T11:03:34;97765.50;;;25.69;40.03
9423;BME280;65863;49.506;10.400;2023-10-13T11:06:21;97774.97;;;25.52;40.53
9423;BME280;65863;49.506;10.400;2023-10-13T11:09:08;97759.94;;;25.33;41.23
9423;BME280;65863;49.506;10.400;2023-10-13T11:12:14;97762.06;;;25.53;40.03
9423;BME280;65863;49.506;10.400;2023-10-13T11:18:06;97716.16;;;25.77;39.23
9423;BME280;65863;49.506;10.400;2023-10-13T11:20:57;97743.06;;;25.86;38.94
9423;BME280;65863;49.506;10.400;2023-10-13T11:23:41;97734.34;;;25.84;39.57
9423;BME280;65863;49.506;10.400;2023-10-13T11:26:35;97745.75;;;26.02;40.04
9423;BME280;65863;49.506;10.400;2023-10-13T11:29:33;97692.31;;;25.72;39.13
9423;BME280;65863;49.506;10.400;2023-10-13T11:32:21;97720.31;;;25.94;38.59
9423;BME280;65863;49.506;10.400;2023-10-13T11:35:05;97728.38;;;26.22;38.69
9423;BME280;65863;49.506;10.400;2023-10-13T11:38:04;97721.25;;;26.23;38.57
9423;BME280;65863;49.506;10.400;2023-10-13T11:41:00;97735.88;;;26.31;39.27
9423;BME280;65863;49.506;10.400;2023-10-13T11:43:52;97680.19;;;25.98;39.91
9423;BME280;65863;49.506;10.400;2023-10-13T11:46:37;97682.75;;;25.88;39.83
9423;BME280;65863;49.506;10.400;2023-10-13T11:49:21;97713.91;;;26.42;40.25
9423;BME280;65863;49.506;10.400;2023-10-13T11:52:11;97694.03;;;26.52;38.27
9423;BME280;65863;49.506;10.400;2023-10-13T11:55:01;97683.41;;;26.08;38.53
9423;BME280;65863;49.506;10.400;2023-10-13T11:57:48;97685.50;;;26.06;39.30
9423;BME280;65863;49.506;10.400;2023-10-13T12:00:32;97680.78;;;26.17;39.43
9423;BME280;65863;49.506;10.400;2023-10-13T12:03:35;97686.22;;;26.55;38.99
9423;BME280;65863;49.506;10.400;2023-10-13T12:06:38;97689.16;;;26.57;37.90
9423;BME280;65863;49.506;10.400;2023-10-13T12:09:21;97655.25;;;26.53;38.04
9423;BME280;65863;49.506;10.400;2023-10-13T12:12:05;97677.41;;;26.73;38.69
9423;BME280;65863;49.506;10.400;2023-10-13T12:14:52;97664.66;;;27.06;37.75
9423;BME280;65863;49.506;10.400;2023-10-13T12:17:36;97626.44;;;26.77;38.46
9423;BME280;65863;49.506;10.400;2023-10-13T12:20:23;97667.41;;;27.02;37.01
9423;BME280;65863;49.506;10.400;2023-10-13T12:23:16;97665.53;;;27.13;37.58
9423;BME280;65863;49.506;10.400;2023-10-13T12:26:02;97621.25;;;26.72;37.47
9423;BME280;65863;49.506;10.400;2023-10-13T12:28:50;97654.88;;;27.18;37.37
9423;BME280;65863;49.506;10.400;2023-10-13T12:31:37;97656.53;;;27.27;38.26
9423;BME280;65863;49.506;10.400;2023-10-13T12:34:22;97642.09;;;27.25;37.24
9423;BME280;65863;49.506;10.400;2023-10-13T12:37:28;97641.13;;;27.44;36.37
9423;BME280;65863;49.506;10.400;2023-10-13T12:40:22;97640.97;;;27.36;36.06
9423;BME280;65863;49.506;10.400;2023-10-13T12:43:24;97624.91;;;27.29;36.35
9423;BME280;65863;49.506;10.400;2023-10-13T12:46:27;97633.16;;;27.14;36.30
9423;BME280;65863;49.506;10.400;2023-10-13T12:49:32;97627.41;;;27.43;35.91
9423;BME280;65863;49.506;10.400;2023-10-13T12:52:33;97624.69;;;27.21;35.90
9423;BME280;65863;49.506;10.400;2023-10-13T12:55:17;97612.28;;;27.14;35.65
9423;BME280;65863;49.506;10.400;2023-10-13T12:58:04;97591.50;;;27.18;35.67
9423;BME280;65863;49.506;10.400;2023-10-13T13:00:49;97601.69;;;27.23;35.48
9423;BME280;65863;49.506;10.400;2023-10-13T13:03:33;97597.97;;;27.46;35.46
9423;BME280;65863;49.506;10.400;2023-10-13T13:06:18;97604.66;;;27.55;35.08
9423;BME280;65863;49.506;10.400;2023-10-13T13:09:08;97586.03;;;27.02;35.83
9423;BME280;65863;49.506;10.400;2023-10-13T13:11:54;97582.19;;;26.91;36.98
9423;BME280;65863;49.506;10.400;2023-10-13T13:14:41;97577.09;;;27.18;35.13
9423;BME280;65863;49.506;10.400;2023-10-13T13:17:29;97586.75;;;27.59;35.88
9423;BME280;65863;49.506;10.400;2023-10-13T13:20:13;97586.72;;;27.91;35.02
9423;BME280;65863;49.506;10.400;2023-10-13T13:23:11;97571.06;;;27.98;35.63
9423;BME280;65863;49.506;10.400;2023-10-13T13:25:56;97578.44;;;27.75;35.09
9423;BME280;65863;49.506;10.400;2023-10-13T13:28:40;97583.25;;;27.97;34.99
9423;BME280;65863;49.506;10.400;2023-10-13T13:31:24;97554.53;;;28.01;33.72
9423;BME280;65863;49.506;10.400;2023-10-13T13:34:13;97561.22;;;27.77;34.26
9423;BME280;65863;49.506;10.400;2023-10-13T13:36:57;97571.97;;;27.44;34.06
9423;BME280;65863;49.506;10.400;2023-10-13T13:39:44;97545.16;;;27.07;35.38
9423;BME280;65863;49.506;10.400;2023-10-13T13:42:29;97547.81;;;26.99;35.81
9423;BME280;65863;49.506;10.400;2023-10-13T13:45:20;97548.97;;;27.16;35.74
9423;BME280;65863;49.506;10.400;2023-10-13T13:48:13;97530.47;;;27.25;35.18
9423;BME280;65863;49.506;10.400;2023-10-13T13:51:03;97541.66;;;27.41;34.57
9423;BME280;65863;49.506;10.400;2023-10-13T13:53:49;97539.69;;;27.20;34.38
9423;BME280;65863;49.506;10.400;2023-10-13T13:56:33;97547.03;;;27.55;34.12
9423;BME280;65863;49.506;10.400;2023-10-13T13:59:21;97532.91;;;27.68;34.77
9423;BME280;65863;49.506;10.400;2023-10-13T14:02:06;97516.19;;;27.62;34.52
9423;BME280;65863;49.506;10.400;2023-10-13T14:05:03;97502.09;;;27.44;33.42
9423;BME280;65863;49.506;10.400;2023-10-13T14:07:47;97504.66;;;27.31;33.31
9423;BME280;65863;49.506;10.400;2023-10-13T14:10:34;97515.19;;;27.49;33.79
9423;BME280;65863;49.506;10.400;2023-10-13T14:13:38;97501.91;;;27.68;32.64
9423;BME280;65863;49.506;10.400;2023-10-13T14:16:43;97490.59;;;27.78;32.77
9423;BME280;65863;49.506;10.400;2023-10-13T14:19:31;97498.56;;;27.80;32.40
9423;BME280;65863;49.506;10.400;2023-10-13T14:22:15;97487.03;;;27.80;32.79
9423;BME280;65863;49.506;10.400;2023-10-13T14:24:59;97475.34;;;28.06;32.82
9423;BME280;65863;49.506;10.400;2023-10-13T14:27:52;97459.13;;;27.91;31.88
9423;BME280;65863;49.506;10.400;2023-10-13T14:30:36;97471.47;;;27.95;31.56
9423;BME280;65863;49.506;10.400;2023-10-13T14:33:20;97427.84;;;27.75;32.51
9423;BME280;65863;49.506;10.400;2023-10-13T14:36:10;97465.13;;;28.01;33.08
9423;BME280;65863;49.506;10.400;2023-10-13T14:38:55;97452.50;;;28.19;33.30
9423;BME280;65863;49.506;10.400;2023-10-13T14:41:39;97464.41;;;28.00;32.76
9423;BME280;65863;49.506;10.400;2023-10-13T14:44:23;97455.91;;;27.74;32.76
9423;BME280;65863;49.506;10.400;2023-10-13T14:47:10;97451.06;;;27.48;32.95
9423;BME280;65863;49.506;10.400;2023-10-13T14:49:56;97458.19;;;27.45;32.80
9423;BME280;65863;49.506;10.400;2023-10-13T14:52:43;97438.53;;;27.36;33.62
9423;BME280;65863;49.506;10.400;2023-10-13T14:55:27;97435.38;;;27.23;33.73
9423;BME280;65863;49.506;10.400;2023-10-13T14:58:22;97447.56;;;27.22;34.13
9423;BME280;65863;49.506;10.400;2023-10-13T15:01:14;97431.41;;;27.06;34.55
9423;BME280;65863;49.506;10.400;2023-10-13T15:03:58;97426.22;;;27.01;35.12
9423;BME280;65863;49.506;10.400;2023-10-13T15:06:43;97427.63;;;27.00;35.05
9423;BME280;65863;49.506;10.400;2023-10-13T15:09:29;97437.00;;;27.00;34.94
9423;BME280;65863;49.506;10.400;2023-10-13T15:12:13;97423.84;;;26.91;35.35
9423;BME280;65863;49.506;10.400;2023-10-13T15:14:57;97416.56;;;26.88;35.48
9423;BME280;65863;49.506;10.400;2023-10-13T15:17:43;97426.34;;;26.76;36.11
9423;BME280;65863;49.506;10.400;2023-10-13T15:20:27;97416.19;;;26.71;36.26
9423;BME280;65863;49.506;10.400;2023-10-13T15:23:11;97429.41;;;26.83;36.50